sensor_id;sensor_type;location;lat;lon;timestamp;temperature;humidity
69677;DHT22;56914;51.058;9.326;2022-10-19T00:00:17;15.50;63.00
69677;DHT22;56914;51.058;9.326;2022-10-19T00:02:45;15.50;62.90
69677;DHT22;56914;51.058;9.326;2022-10-19T00:05:13;15.50;63.20
69677;DHT22;56914;51.058;9.326;2022-10-19T00:07:43;15.50;63.20
69677;DHT22;56914;51.058;9.326;2022-10-19T00:10:11;15.50;63.20
69677;DHT22;56914;51.058;9.326;2022-10-19T00:12:46;15.40;63.30
69677;DHT22;56914;51.058;9.326;2022-10-19T00:15:15;15.50;63.40
69677;DHT22;56914;51.058;9.326;2022-10-19T00:17:42;15.40;63.30
69677;DHT22;56914;51.058;9.326;2022-10-19T00:20:10;15.40;63.30
69677;DHT22;56914;51.058;9.326;2022-10-19T00:22:38;15.40;63.80
69677;DHT22;56914;51.058;9.326;2022-10-19T00:25:06;15.40;63.10
69677;DHT22;56914;51.058;9.326;2022-10-19T00:27:34;15.40;63.00
69677;DHT22;56914;51.058;9.326;2022-10-19T00:30:07;15.40;63.00
69677;DHT22;56914;51.058;9.326;2022-10-19T00:32:38;15.30;63.20
69677;DHT22;56914;51.058;9.326;2022-10-19T00:35:06;15.30;63.20
69677;DHT22;56914;51.058;9.326;2022-10-19T00:37:34;15.30;63.30
69677;DHT22;56914;51.058;9.326;2022-10-19T00:40:02;15.30;63.30
69677;DHT22;56914;51.058;9.326;2022-10-19T00:42:30;15.40;63.30
69677;DHT22;56914;51.058;9.326;2022-10-19T00:44:59;15.50;63.30
69677;DHT22;56914;51.058;9.326;2022-10-19T00:47:29;15.50;63.00
69677;DHT22;56914;51.058;9.326;2022-10-19T00:50:05;15.40;63.30
69677;DHT22;56914;51.058;9.326;2022-10-19T00:52:34;15.50;63.30
69677;DHT22;56914;51.058;9.326;2022-10-19T00:55:02;15.50;63.10
69677;DHT22;56914;51.058;9.326;2022-10-19T00:57:30;15.40;63.10
69677;DHT22;56914;51.058;9.326;2022-10-19T00:59:58;15.40;63.40
69677;DHT22;56914;51.058;9.326;2022-10-19T01:02:27;15.30;63.50
69677;DHT22;56914;51.058;9.326;2022-10-19T01:04:56;15.30;63.50
69677;DHT22;56914;51.058;9.326;2022-10-19T01:07:27;15.30;63.50
69677;DHT22;56914;51.058;9.326;2022-10-19T01:09:55;15.20;63.60
69677;DHT22;56914;51.058;9.326;2022-10-19T01:12:32;15.20;63.70
69677;DHT22;56914;51.058;9.326;2022-10-19T01:15:04;15.10;63.80
69677;DHT22;56914;51.058;9.326;2022-10-19T01:17:41;15.20;63.70
69677;DHT22;56914;51.058;9.326;2022-10-19T01:23:08;15.20;63.40
69677;DHT22;56914;51.058;9.326;2022-10-19T01:25:43;15.10;63.40
69677;DHT22;56914;51.058;9.326;2022-10-19T01:28:21;15.10;63.50
69677;DHT22;56914;51.058;9.326;2022-10-19T01:30:56;15.10;63.50
69677;DHT22;56914;51.058;9.326;2022-10-19T01:33:28;15.20;63.50
69677;DHT22;56914;51.058;9.326;2022-10-19T01:36:02;15.30;63.40
69677;DHT22;56914;51.058;9.326;2022-10-19T01:38:33;15.30;63.30
69677;DHT22;56914;51.058;9.326;2022-10-19T01:41:05;15.40;63.20
69677;DHT22;56914;51.058;9.326;2022-10-19T01:43:38;15.40;63.10
69677;DHT22;56914;51.058;9.326;2022-10-19T01:46:10;15.40;63.10
69677;DHT22;56914;51.058;9.326;2022-10-19T01:48:42;15.30;64.00
69677;DHT22;56914;51.058;9.326;2022-10-19T01:51:12;15.20;63.60
69677;DHT22;56914;51.058;9.326;2022-10-19T01:53:42;15.20;63.50
69677;DHT22;56914;51.058;9.326;2022-10-19T01:56:12;15.10;63.50
69677;DHT22;56914;51.058;9.326;2022-10-19T01:58:41;15.00;63.70
69677;DHT22;56914;51.058;9.326;2022-10-19T02:01:12;14.90;63.90
69677;DHT22;56914;51.058;9.326;2022-10-19T02:03:44;14.80;64.10
69677;DHT22;56914;51.058;9.326;2022-10-19T02:06:13;14.70;64.50
69677;DHT22;56914;51.058;9.326;2022-10-19T02:08:45;14.60;64.80
69677;DHT22;56914;51.058;9.326;2022-10-19T02:11:16;14.60;64.80
69677;DHT22;56914;51.058;9.326;2022-10-19T02:13:44;14.70;64.30
69677;DHT22;56914;51.058;9.326;2022-10-19T02:16:18;14.60;64.30
69677;DHT22;56914;51.058;9.326;2022-10-19T02:18:48;14.60;64.40
69677;DHT22;56914;51.058;9.326;2022-10-19T02:21:20;14.60;64.40
69677;DHT22;56914;51.058;9.326;2022-10-19T02:23:48;14.60;64.50
69677;DHT22;56914;51.058;9.326;2022-10-19T02:26:20;14.60;64.30
69677;DHT22;56914;51.058;9.326;2022-10-19T02:28:48;14.70;64.00
69677;DHT22;56914;51.058;9.326;2022-10-19T02:31:22;14.70;63.80
69677;DHT22;56914;51.058;9.326;2022-10-19T02:33:54;14.70;63.80
69677;DHT22;56914;51.058;9.326;2022-10-19T02:36:26;14.60;63.80
69677;DHT22;56914;51.058;9.326;2022-10-19T02:38:54;14.60;63.80
69677;DHT22;56914;51.058;9.326;2022-10-19T02:41:23;14.70;63.80
69677;DHT22;56914;51.058;9.326;2022-10-19T02:43:53;14.60;63.90
69677;DHT22;56914;51.058;9.326;2022-10-19T02:46:26;14.60;64.00
69677;DHT22;56914;51.058;9.326;2022-10-19T02:48:56;14.60;64.10
69677;DHT22;56914;51.058;9.326;2022-10-19T02:51:30;14.50;64.00
69677;DHT22;56914;51.058;9.326;2022-10-19T02:53:58;14.50;64.50
69677;DHT22;56914;51.058;9.326;2022-10-19T02:56:30;14.40;64.50
69677;DHT22;56914;51.058;9.326;2022-10-19T02:58:58;14.30;64.50
69677;DHT22;56914;51.058;9.326;2022-10-19T03:01:28;14.30;64.40
69677;DHT22;56914;51.058;9.326;2022-10-19T03:03:58;14.30;64.20
69677;DHT22;56914;51.058;9.326;2022-10-19T03:06:25;14.30;64.20
69677;DHT22;56914;51.058;9.326;2022-10-19T03:08:54;14.20;64.10
69677;DHT22;56914;51.058;9.326;2022-10-19T03:11:22;14.10;64.00
69677;DHT22;56914;51.058;9.326;2022-10-19T03:13:50;14.10;64.00
69677;DHT22;56914;51.058;9.326;2022-10-19T03:16:18;14.10;64.00
69677;DHT22;56914;51.058;9.326;2022-10-19T03:18:52;14.10;63.70
69677;DHT22;56914;51.058;9.326;2022-10-19T03:21:20;14.10;63.60
69677;DHT22;56914;51.058;9.326;2022-10-19T03:23:48;14.10;63.50
69677;DHT22;56914;51.058;9.326;2022-10-19T03:26:16;14.00;63.50
69677;DHT22;56914;51.058;9.326;2022-10-19T03:28:43;14.00;63.70
69677;DHT22;56914;51.058;9.326;2022-10-19T03:31:11;13.80;63.90
69677;DHT22;56914;51.058;9.326;2022-10-19T03:33:39;13.60;64.30
69677;DHT22;56914;51.058;9.326;2022-10-19T03:36:17;13.60;64.50
69677;DHT22;56914;51.058;9.326;2022-10-19T03:38:46;13.60;64.60
69677;DHT22;56914;51.058;9.326;2022-10-19T03:41:14;13.60;64.60
69677;DHT22;56914;51.058;9.326;2022-10-19T03:43:41;13.60;64.70
69677;DHT22;56914;51.058;9.326;2022-10-19T03:46:09;13.60;64.50
69677;DHT22;56914;51.058;9.326;2022-10-19T03:48:37;13.60;64.40
69677;DHT22;56914;51.058;9.326;2022-10-19T03:51:06;13.60;64.40
69677;DHT22;56914;51.058;9.326;2022-10-19T03:53:36;13.60;64.60
69677;DHT22;56914;51.058;9.326;2022-10-19T03:56:15;13.60;64.50
69677;DHT22;56914;51.058;9.326;2022-10-19T03:58:45;13.80;64.30
69677;DHT22;56914;51.058;9.326;2022-10-19T04:01:14;13.70;64.10
69677;DHT22;56914;51.058;9.326;2022-10-19T04:03:43;13.80;64.10
69677;DHT22;56914;51.058;9.326;2022-10-19T04:06:12;13.90;64.10
69677;DHT22;56914;51.058;9.326;2022-10-19T04:08:48;13.80;64.20
69677;DHT22;56914;51.058;9.326;2022-10-19T04:11:20;13.80;64.20
69677;DHT22;56914;51.058;9.326;2022-10-19T04:13:48;13.80;64.20
69677;DHT22;56914;51.058;9.326;2022-10-19T04:16:17;13.90;64.20
69677;DHT22;56914;51.058;9.326;2022-10-19T04:18:45;13.90;64.10
69677;DHT22;56914;51.058;9.326;2022-10-19T04:21:20;14.00;63.90
69677;DHT22;56914;51.058;9.326;2022-10-19T04:23:50;14.10;63.80
69677;DHT22;56914;51.058;9.326;2022-10-19T04:26:19;14.10;63.50
69677;DHT22;56914;51.058;9.326;2022-10-19T04:28:47;14.20;63.60
69677;DHT22;56914;51.058;9.326;2022-10-19T04:31:15;14.20;63.40
69677;DHT22;56914;51.058;9.326;2022-10-19T04:33:43;14.20;63.30
69677;DHT22;56914;51.058;9.326;2022-10-19T04:36:12;14.20;63.30
69677;DHT22;56914;51.058;9.326;2022-10-19T04:38:42;14.10;63.50
69677;DHT22;56914;51.058;9.326;2022-10-19T04:41:11;14.10;63.70
69677;DHT22;56914;51.058;9.326;2022-10-19T04:43:54;14.20;63.60
69677;DHT22;56914;51.058;9.326;2022-10-19T04:46:23;14.10;63.50
69677;DHT22;56914;51.058;9.326;2022-10-19T04:48:53;14.10;63.50
69677;DHT22;56914;51.058;9.326;2022-10-19T04:51:22;14.00;63.90
69677;DHT22;56914;51.058;9.326;2022-10-19T04:53:50;14.00;63.90
69677;DHT22;56914;51.058;9.326;2022-10-19T04:56:26;14.00;63.90
69677;DHT22;56914;51.058;9.326;2022-10-19T04:58:55;14.00;63.70
69677;DHT22;56914;51.058;9.326;2022-10-19T05:01:24;14.00;63.80
69677;DHT22;56914;51.058;9.326;2022-10-19T05:03:57;14.00;63.60
69677;DHT22;56914;51.058;9.326;2022-10-19T05:06:28;14.10;63.50
69677;DHT22;56914;51.058;9.326;2022-10-19T05:08:56;14.10;63.50
69677;DHT22;56914;51.058;9.326;2022-10-19T05:11:27;14.00;64.10
69677;DHT22;56914;51.058;9.326;2022-10-19T05:13:55;14.00;63.50
69677;DHT22;56914;51.058;9.326;2022-10-19T05:16:23;14.10;63.50
69677;DHT22;56914;51.058;9.326;2022-10-19T05:18:52;14.10;63.40
69677;DHT22;56914;51.058;9.326;2022-10-19T05:21:21;14.10;63.40
69677;DHT22;56914;51.058;9.326;2022-10-19T05:23:49;14.20;63.30
69677;DHT22;56914;51.058;9.326;2022-10-19T05:26:18;14.20;63.30
69677;DHT22;56914;51.058;9.326;2022-10-19T05:28:51;14.20;63.30
69677;DHT22;56914;51.058;9.326;2022-10-19T05:31:25;14.00;63.60
69677;DHT22;56914;51.058;9.326;2022-10-19T05:33:55;13.90;64.10
69677;DHT22;56914;51.058;9.326;2022-10-19T05:36:24;13.90;64.10
69677;DHT22;56914;51.058;9.326;2022-10-19T05:38:52;13.90;64.00
69677;DHT22;56914;51.058;9.326;2022-10-19T05:41:22;14.00;63.80
69677;DHT22;56914;51.058;9.326;2022-10-19T05:43:52;14.00;64.00
69677;DHT22;56914;51.058;9.326;2022-10-19T05:46:20;14.00;64.00
69677;DHT22;56914;51.058;9.326;2022-10-19T05:48:49;14.00;63.90
69677;DHT22;56914;51.058;9.326;2022-10-19T05:51:17;14.00;63.90
69677;DHT22;56914;51.058;9.326;2022-10-19T05:53:45;14.00;64.00
69677;DHT22;56914;51.058;9.326;2022-10-19T05:56:16;14.00;63.90
69677;DHT22;56914;51.058;9.326;2022-10-19T05:58:44;14.00;63.80
69677;DHT22;56914;51.058;9.326;2022-10-19T06:01:15;14.00;64.00
69677;DHT22;56914;51.058;9.326;2022-10-19T06:03:50;14.00;64.00
69677;DHT22;56914;51.058;9.326;2022-10-19T06:06:22;14.00;64.00
69677;DHT22;56914;51.058;9.326;2022-10-19T06:08:51;13.90;64.00
69677;DHT22;56914;51.058;9.326;2022-10-19T06:11:20;13.90;64.10
69677;DHT22;56914;51.058;9.326;2022-10-19T06:13:48;13.90;64.60
69677;DHT22;56914;51.058;9.326;2022-10-19T06:16:18;13.90;64.60
69677;DHT22;56914;51.058;9.326;2022-10-19T06:18:46;13.90;64.50
69677;DHT22;56914;51.058;9.326;2022-10-19T06:21:14;13.90;64.50
69677;DHT22;56914;51.058;9.326;2022-10-19T06:23:43;14.00;64.50
69677;DHT22;56914;51.058;9.326;2022-10-19T06:26:11;14.00;64.40
69677;DHT22;56914;51.058;9.326;2022-10-19T06:28:40;14.10;64.30
69677;DHT22;56914;51.058;9.326;2022-10-19T06:31:10;14.10;64.30
69677;DHT22;56914;51.058;9.326;2022-10-19T06:33:41;14.10;64.20
69677;DHT22;56914;51.058;9.326;2022-10-19T06:36:12;14.10;64.10
69677;DHT22;56914;51.058;9.326;2022-10-19T06:38:41;14.10;64.40
69677;DHT22;56914;51.058;9.326;2022-10-19T06:41:09;14.10;64.50
69677;DHT22;56914;51.058;9.326;2022-10-19T06:43:38;14.20;64.50
69677;DHT22;56914;51.058;9.326;2022-10-19T06:46:09;14.30;64.20
69677;DHT22;56914;51.058;9.326;2022-10-19T06:48:37;14.20;64.30
69677;DHT22;56914;51.058;9.326;2022-10-19T06:51:11;14.30;64.40
69677;DHT22;56914;51.058;9.326;2022-10-19T06:53:39;14.20;64.10
69677;DHT22;56914;51.058;9.326;2022-10-19T06:56:09;14.20;64.20
69677;DHT22;56914;51.058;9.326;2022-10-19T06:58:37;14.20;64.30
69677;DHT22;56914;51.058;9.326;2022-10-19T07:01:06;14.20;64.30
69677;DHT22;56914;51.058;9.326;2022-10-19T07:03:34;14.20;64.40
69677;DHT22;56914;51.058;9.326;2022-10-19T07:06:03;14.20;64.40
69677;DHT22;56914;51.058;9.326;2022-10-19T07:08:33;14.30;64.50
69677;DHT22;56914;51.058;9.326;2022-10-19T07:11:05;14.30;64.40
69677;DHT22;56914;51.058;9.326;2022-10-19T07:13:33;14.40;64.20
69677;DHT22;56914;51.058;9.326;2022-10-19T07:16:02;14.40;64.10
69677;DHT22;56914;51.058;9.326;2022-10-19T07:18:32;14.40;64.10
69677;DHT22;56914;51.058;9.326;2022-10-19T07:21:02;14.40;64.30
69677;DHT22;56914;51.058;9.326;2022-10-19T07:23:31;14.50;64.40
69677;DHT22;56914;51.058;9.326;2022-10-19T07:26:04;14.50;64.20
69677;DHT22;56914;51.058;9.326;2022-10-19T07:28:35;14.50;64.10
69677;DHT22;56914;51.058;9.326;2022-10-19T07:31:03;14.50;64.20
69677;DHT22;56914;51.058;9.326;2022-10-19T07:33:32;14.60;64.20
69677;DHT22;56914;51.058;9.326;2022-10-19T07:36:00;14.60;64.00
69677;DHT22;56914;51.058;9.326;2022-10-19T07:38:30;14.50;64.00
69677;DHT22;56914;51.058;9.326;2022-10-19T07:41:01;14.40;64.00
69677;DHT22;56914;51.058;9.326;2022-10-19T07:43:31;14.40;64.20
69677;DHT22;56914;51.058;9.326;2022-10-19T07:46:00;14.40;64.70
69677;DHT22;56914;51.058;9.326;2022-10-19T07:48:28;14.30;64.20
69677;DHT22;56914;51.058;9.326;2022-10-19T07:50:56;14.40;64.30
69677;DHT22;56914;51.058;9.326;2022-10-19T07:53:25;14.40;64.40
69677;DHT22;56914;51.058;9.326;2022-10-19T07:55:53;14.50;64.30
69677;DHT22;56914;51.058;9.326;2022-10-19T07:58:21;14.50;64.20
69677;DHT22;56914;51.058;9.326;2022-10-19T08:00:54;14.60;64.20
69677;DHT22;56914;51.058;9.326;2022-10-19T08:03:31;14.60;64.10
69677;DHT22;56914;51.058;9.326;2022-10-19T08:06:19;14.60;64.00
69677;DHT22;56914;51.058;9.326;2022-10-19T08:08:48;14.60;64.10
69677;DHT22;56914;51.058;9.326;2022-10-19T08:11:16;14.60;64.10
69677;DHT22;56914;51.058;9.326;2022-10-19T08:13:44;14.70;64.00
69677;DHT22;56914;51.058;9.326;2022-10-19T08:16:21;14.70;64.00
69677;DHT22;56914;51.058;9.326;2022-10-19T08:18:51;14.70;64.00
69677;DHT22;56914;51.058;9.326;2022-10-19T08:21:19;14.80;64.00
69677;DHT22;56914;51.058;9.326;2022-10-19T08:23:47;14.80;64.00
69677;DHT22;56914;51.058;9.326;2022-10-19T08:26:15;14.80;63.80
69677;DHT22;56914;51.058;9.326;2022-10-19T08:28:43;14.80;64.30
69677;DHT22;56914;51.058;9.326;2022-10-19T08:31:11;14.90;63.60
69677;DHT22;56914;51.058;9.326;2022-10-19T08:33:41;15.00;63.60
69677;DHT22;56914;51.058;9.326;2022-10-19T08:36:10;15.10;63.70
69677;DHT22;56914;51.058;9.326;2022-10-19T08:38:38;15.20;63.60
69677;DHT22;56914;51.058;9.326;2022-10-19T08:41:08;15.50;63.50
69677;DHT22;56914;51.058;9.326;2022-10-19T08:43:51;15.80;63.50
69677;DHT22;56914;51.058;9.326;2022-10-19T08:46:22;16.00;62.90
69677;DHT22;56914;51.058;9.326;2022-10-19T08:48:52;15.90;62.20
69677;DHT22;56914;51.058;9.326;2022-10-19T08:51:20;15.80;62.20
69677;DHT22;56914;51.058;9.326;2022-10-19T08:53:50;15.90;62.50
69677;DHT22;56914;51.058;9.326;2022-10-19T08:56:20;15.90;62.80
69677;DHT22;56914;51.058;9.326;2022-10-19T08:59:13;15.80;62.90
69677;DHT22;56914;51.058;9.326;2022-10-19T09:01:42;15.90;63.00
69677;DHT22;56914;51.058;9.326;2022-10-19T09:04:16;16.10;62.70
69677;DHT22;56914;51.058;9.326;2022-10-19T09:06:48;16.20;62.60
69677;DHT22;56914;51.058;9.326;2022-10-19T09:09:18;16.20;62.80
69677;DHT22;56914;51.058;9.326;2022-10-19T09:11:48;16.40;62.60
69677;DHT22;56914;51.058;9.326;2022-10-19T09:14:17;16.50;62.30
69677;DHT22;56914;51.058;9.326;2022-10-19T09:16:47;16.60;62.20
69677;DHT22;56914;51.058;9.326;2022-10-19T09:19:19;16.60;61.90
69677;DHT22;56914;51.058;9.326;2022-10-19T09:21:52;16.50;61.90
69677;DHT22;56914;51.058;9.326;2022-10-19T09:24:28;16.50;62.00
69677;DHT22;56914;51.058;9.326;2022-10-19T09:26:59;16.50;61.80
69677;DHT22;56914;51.058;9.326;2022-10-19T09:29:29;16.50;61.60
69677;DHT22;56914;51.058;9.326;2022-10-19T09:32:00;16.30;61.80
69677;DHT22;56914;51.058;9.326;2022-10-19T09:34:30;16.40;62.20
69677;DHT22;56914;51.058;9.326;2022-10-19T09:36:59;16.60;61.90
69677;DHT22;56914;51.058;9.326;2022-10-19T09:39:28;16.90;61.60
69677;DHT22;56914;51.058;9.326;2022-10-19T09:41:57;17.00;61.30
69677;DHT22;56914;51.058;9.326;2022-10-19T09:44:28;16.80;61.60
69677;DHT22;56914;51.058;9.326;2022-10-19T09:47:00;16.80;61.90
69677;DHT22;56914;51.058;9.326;2022-10-19T09:49:38;16.90;61.90
69677;DHT22;56914;51.058;9.326;2022-10-19T09:52:21;17.10;61.60
69677;DHT22;56914;51.058;9.326;2022-10-19T09:54:50;17.30;61.40
69677;DHT22;56914;51.058;9.326;2022-10-19T09:57:28;17.40;60.90
69677;DHT22;56914;51.058;9.326;2022-10-19T09:59:58;17.50;60.80
69677;DHT22;56914;51.058;9.326;2022-10-19T10:02:30;17.50;60.30
69677;DHT22;56914;51.058;9.326;2022-10-19T10:05:03;17.60;60.10
69677;DHT22;56914;51.058;9.326;2022-10-19T10:07:33;17.60;60.00
69677;DHT22;56914;51.058;9.326;2022-10-19T10:13:24;17.80;60.20
69677;DHT22;56914;51.058;9.326;2022-10-19T10:15:55;17.90;60.40
69677;DHT22;56914;51.058;9.326;2022-10-19T10:18:23;18.10;60.10
69677;DHT22;56914;51.058;9.326;2022-10-19T10:20:57;18.20;59.80
69677;DHT22;56914;51.058;9.326;2022-10-19T10:23:27;18.20;59.60
69677;DHT22;56914;51.058;9.326;2022-10-19T10:25:57;18.10;59.30
69677;DHT22;56914;51.058;9.326;2022-10-19T10:28:26;18.10;59.20
69677;DHT22;56914;51.058;9.326;2022-10-19T10:30:57;18.10;59.10
69677;DHT22;56914;51.058;9.326;2022-10-19T10:33:27;18.10;58.80
69677;DHT22;56914;51.058;9.326;2022-10-19T10:36:17;18.10;58.50
69677;DHT22;56914;51.058;9.326;2022-10-19T10:38:50;18.10;57.90
69677;DHT22;56914;51.058;9.326;2022-10-19T10:41:20;18.20;58.40
69677;DHT22;56914;51.058;9.326;2022-10-19T10:43:50;18.30;57.90
69677;DHT22;56914;51.058;9.326;2022-10-19T10:46:20;18.30;57.70
69677;DHT22;56914;51.058;9.326;2022-10-19T10:48:54;18.30;57.90
69677;DHT22;56914;51.058;9.326;2022-10-19T10:51:26;18.30;57.00
69677;DHT22;56914;51.058;9.326;2022-10-19T10:54:05;18.40;57.30
69677;DHT22;56914;51.058;9.326;2022-10-19T10:56:33;18.50;57.30
69677;DHT22;56914;51.058;9.326;2022-10-19T10:59:09;18.50;57.20
69677;DHT22;56914;51.058;9.326;2022-10-19T11:01:40;18.40;56.20
69677;DHT22;56914;51.058;9.326;2022-10-19T11:04:09;18.30;56.20
69677;DHT22;56914;51.058;9.326;2022-10-19T11:06:41;18.30;56.50
69677;DHT22;56914;51.058;9.326;2022-10-19T11:09:12;18.20;56.40
69677;DHT22;56914;51.058;9.326;2022-10-19T11:11:43;18.20;56.50
69677;DHT22;56914;51.058;9.326;2022-10-19T11:14:24;18.20;55.80
69677;DHT22;56914;51.058;9.326;2022-10-19T11:17:00;18.30;55.00
69677;DHT22;56914;51.058;9.326;2022-10-19T11:19:32;18.30;55.10
69677;DHT22;56914;51.058;9.326;2022-10-19T11:22:03;18.30;55.10
69677;DHT22;56914;51.058;9.326;2022-10-19T11:24:39;18.30;53.90
69677;DHT22;56914;51.058;9.326;2022-10-19T11:27:17;18.30;53.80
69677;DHT22;56914;51.058;9.326;2022-10-19T11:29:51;18.30;53.60
69677;DHT22;56914;51.058;9.326;2022-10-19T11:32:25;18.40;53.90
69677;DHT22;56914;51.058;9.326;2022-10-19T11:34:57;18.40;54.10
69677;DHT22;56914;51.058;9.326;2022-10-19T11:37:33;18.50;53.90
69677;DHT22;56914;51.058;9.326;2022-10-19T11:40:18;18.70;53.90
69677;DHT22;56914;51.058;9.326;2022-10-19T11:42:52;19.00;53.70
69677;DHT22;56914;51.058;9.326;2022-10-19T11:45:25;19.10;53.20
69677;DHT22;56914;51.058;9.326;2022-10-19T11:48:05;19.20;53.10
69677;DHT22;56914;51.058;9.326;2022-10-19T11:50:37;19.10;53.10
69677;DHT22;56914;51.058;9.326;2022-10-19T11:53:17;19.10;53.10
69677;DHT22;56914;51.058;9.326;2022-10-19T11:55:50;19.20;53.10
69677;DHT22;56914;51.058;9.326;2022-10-19T11:58:29;19.20;53.30
69677;DHT22;56914;51.058;9.326;2022-10-19T12:01:03;19.20;52.80
69677;DHT22;56914;51.058;9.326;2022-10-19T12:03:47;19.20;52.10
69677;DHT22;56914;51.058;9.326;2022-10-19T12:06:21;19.20;52.20
69677;DHT22;56914;51.058;9.326;2022-10-19T12:09:02;19.10;52.40
69677;DHT22;56914;51.058;9.326;2022-10-19T12:11:38;19.20;52.40
69677;DHT22;56914;51.058;9.326;2022-10-19T12:14:08;19.20;51.20
69677;DHT22;56914;51.058;9.326;2022-10-19T12:16:41;19.10;51.00
69677;DHT22;56914;51.058;9.326;2022-10-19T12:19:11;19.20;50.70
69677;DHT22;56914;51.058;9.326;2022-10-19T12:21:43;19.20;50.70
69677;DHT22;56914;51.058;9.326;2022-10-19T12:24:13;19.20;50.60
69677;DHT22;56914;51.058;9.326;2022-10-19T12:26:45;19.30;50.60
69677;DHT22;56914;51.058;9.326;2022-10-19T12:29:14;19.30;50.40
69677;DHT22;56914;51.058;9.326;2022-10-19T12:31:42;19.30;50.20
69677;DHT22;56914;51.058;9.326;2022-10-19T12:34:14;19.30;50.10
69677;DHT22;56914;51.058;9.326;2022-10-19T12:36:57;19.30;49.80
69677;DHT22;56914;51.058;9.326;2022-10-19T12:39:32;19.30;49.90
69677;DHT22;56914;51.058;9.326;2022-10-19T12:42:05;19.40;49.80
69677;DHT22;56914;51.058;9.326;2022-10-19T12:44:47;19.40;49.70
69677;DHT22;56914;51.058;9.326;2022-10-19T12:47:24;19.50;49.60
69677;DHT22;56914;51.058;9.326;2022-10-19T12:49:52;19.40;49.10
69677;DHT22;56914;51.058;9.326;2022-10-19T12:52:33;19.40;49.00
69677;DHT22;56914;51.058;9.326;2022-10-19T12:55:23;19.40;48.80
69677;DHT22;56914;51.058;9.326;2022-10-19T12:57:57;19.40;49.00
69677;DHT22;56914;51.058;9.326;2022-10-19T13:00:29;19.50;49.20
69677;DHT22;56914;51.058;9.326;2022-10-19T13:02:58;19.60;49.10
69677;DHT22;56914;51.058;9.326;2022-10-19T13:05:27;19.70;48.50
69677;DHT22;56914;51.058;9.326;2022-10-19T13:07:56;19.70;48.40
69677;DHT22;56914;51.058;9.326;2022-10-19T13:10:41;19.80;48.60
69677;DHT22;56914;51.058;9.326;2022-10-19T13:21:50;19.90;48.60
69677;DHT22;56914;51.058;9.326;2022-10-19T13:24:31;19.90;48.50
69677;DHT22;56914;51.058;9.326;2022-10-19T13:29:48;19.90;48.70
69677;DHT22;56914;51.058;9.326;2022-10-19T13:32:29;19.80;49.10
69677;DHT22;56914;51.058;9.326;2022-10-19T13:37:41;19.90;49.30
69677;DHT22;56914;51.058;9.326;2022-10-19T13:40:16;20.00;49.00
69677;DHT22;56914;51.058;9.326;2022-10-19T13:42:56;20.00;48.90
69677;DHT22;56914;51.058;9.326;2022-10-19T13:45:25;20.10;48.80
69677;DHT22;56914;51.058;9.326;2022-10-19T13:47:53;20.10;48.80
69677;DHT22;56914;51.058;9.326;2022-10-19T13:50:26;20.20;49.00
69677;DHT22;56914;51.058;9.326;2022-10-19T13:53:00;20.20;48.90
69677;DHT22;56914;51.058;9.326;2022-10-19T13:58:21;20.30;49.50
69677;DHT22;56914;51.058;9.326;2022-10-19T14:00:57;20.40;48.90
69677;DHT22;56914;51.058;9.326;2022-10-19T14:03:33;20.40;48.70
69677;DHT22;56914;51.058;9.326;2022-10-19T14:06:11;20.30;48.30
69677;DHT22;56914;51.058;9.326;2022-10-19T14:11:27;20.00;48.80
69677;DHT22;56914;51.058;9.326;2022-10-19T14:14:13;19.80;49.00
69677;DHT22;56914;51.058;9.326;2022-10-19T14:16:48;19.80;49.20
69677;DHT22;56914;51.058;9.326;2022-10-19T14:19:20;19.80;49.30
69677;DHT22;56914;51.058;9.326;2022-10-19T14:21:55;19.70;49.20
69677;DHT22;56914;51.058;9.326;2022-10-19T14:24:27;19.50;48.90
69677;DHT22;56914;51.058;9.326;2022-10-19T14:26:55;19.30;49.30
69677;DHT22;56914;51.058;9.326;2022-10-19T14:29:26;19.30;49.70
69677;DHT22;56914;51.058;9.326;2022-10-19T14:31:56;19.20;49.90
69677;DHT22;56914;51.058;9.326;2022-10-19T14:34:25;19.20;49.90
69677;DHT22;56914;51.058;9.326;2022-10-19T14:36:53;19.20;50.10
69677;DHT22;56914;51.058;9.326;2022-10-19T14:39:26;19.10;50.30
69677;DHT22;56914;51.058;9.326;2022-10-19T14:41:55;19.10;50.30
69677;DHT22;56914;51.058;9.326;2022-10-19T14:44:36;19.00;50.10
69677;DHT22;56914;51.058;9.326;2022-10-19T14:47:17;18.90;50.40
69677;DHT22;56914;51.058;9.326;2022-10-19T14:49:46;18.90;50.50
69677;DHT22;56914;51.058;9.326;2022-10-19T14:52:15;18.80;50.60
69677;DHT22;56914;51.058;9.326;2022-10-19T14:54:46;18.80;50.90
69677;DHT22;56914;51.058;9.326;2022-10-19T14:57:16;18.70;51.20
69677;DHT22;56914;51.058;9.326;2022-10-19T14:59:46;18.60;51.40
69677;DHT22;56914;51.058;9.326;2022-10-19T15:02:15;18.60;51.20
69677;DHT22;56914;51.058;9.326;2022-10-19T15:04:45;18.60;51.30
69677;DHT22;56914;51.058;9.326;2022-10-19T15:07:15;18.60;51.20
69677;DHT22;56914;51.058;9.326;2022-10-19T15:09:48;18.50;51.00
69677;DHT22;56914;51.058;9.326;2022-10-19T15:12:17;18.50;51.20
69677;DHT22;56914;51.058;9.326;2022-10-19T15:14:46;18.40;51.30
69677;DHT22;56914;51.058;9.326;2022-10-19T15:17:24;18.30;51.30
69677;DHT22;56914;51.058;9.326;2022-10-19T15:19:54;18.30;51.30
69677;DHT22;56914;51.058;9.326;2022-10-19T15:22:23;18.20;51.50
69677;DHT22;56914;51.058;9.326;2022-10-19T15:24:57;18.10;51.60
69677;DHT22;56914;51.058;9.326;2022-10-19T15:27:29;18.10;51.70
69677;DHT22;56914;51.058;9.326;2022-10-19T15:29:58;18.00;51.70
69677;DHT22;56914;51.058;9.326;2022-10-19T15:32:29;17.90;51.70
69677;DHT22;56914;51.058;9.326;2022-10-19T15:34:59;17.80;51.80
69677;DHT22;56914;51.058;9.326;2022-10-19T15:37:37;17.80;52.10
69677;DHT22;56914;51.058;9.326;2022-10-19T15:40:08;17.70;52.10
69677;DHT22;56914;51.058;9.326;2022-10-19T15:42:37;17.70;52.10
69677;DHT22;56914;51.058;9.326;2022-10-19T15:45:28;17.60;52.00
69677;DHT22;56914;51.058;9.326;2022-10-19T15:50:53;17.50;52.40
69677;DHT22;56914;51.058;9.326;2022-10-19T15:53:21;17.40;52.50
69677;DHT22;56914;51.058;9.326;2022-10-19T15:55:49;17.40;52.70
69677;DHT22;56914;51.058;9.326;2022-10-19T15:58:17;17.30;52.80
69677;DHT22;56914;51.058;9.326;2022-10-19T16:00:46;17.20;52.80
69677;DHT22;56914;51.058;9.326;2022-10-19T16:03:14;17.20;52.90
69677;DHT22;56914;51.058;9.326;2022-10-19T16:05:42;17.20;52.90
69677;DHT22;56914;51.058;9.326;2022-10-19T16:08:12;17.10;52.90
69677;DHT22;56914;51.058;9.326;2022-10-19T16:10:40;17.10;52.90
69677;DHT22;56914;51.058;9.326;2022-10-19T16:13:08;17.00;52.90
69677;DHT22;56914;51.058;9.326;2022-10-19T16:15:36;16.90;53.00
69677;DHT22;56914;51.058;9.326;2022-10-19T16:18:26;16.80;53.10
69677;DHT22;56914;51.058;9.326;2022-10-19T16:20:54;16.80;53.10
69677;DHT22;56914;51.058;9.326;2022-10-19T16:23:24;16.70;53.10